createdAt,value
2023-02-17T00:01:11.859Z,33.53
2023-02-17T00:03:41.220Z,34.88
2023-02-17T00:06:10.530Z,36.58
2023-02-17T00:08:39.169Z,40.25
2023-02-17T00:11:07.791Z,36.40
2023-02-17T00:13:36.011Z,35.75
2023-02-17T00:16:08.422Z,43.40
2023-02-17T00:18:36.639Z,38.53
2023-02-17T00:21:15.635Z,42.58
2023-02-17T00:23:43.644Z,36.53
2023-02-17T00:26:11.947Z,42.72
2023-02-17T00:28:40.140Z,37.67
2023-02-17T00:31:09.619Z,39.58
2023-02-17T00:33:38.453Z,37.15
2023-02-17T00:36:08.469Z,39.42
2023-02-17T00:38:39.464Z,40.17
2023-02-17T00:41:07.661Z,39.80
2023-02-17T00:43:35.634Z,38.35
2023-02-17T00:46:04.902Z,43.63
2023-02-17T00:48:33.464Z,39.13
2023-02-17T00:51:01.559Z,44.95
2023-02-17T00:53:29.686Z,37.85
2023-02-17T00:55:58.904Z,38.75
2023-02-17T00:58:26.813Z,44.40
2023-02-17T01:00:57.059Z,39.30
2023-02-17T01:03:25.190Z,40.38
2023-02-17T01:05:54.537Z,42.47
2023-02-17T01:08:22.966Z,43.72
2023-02-17T01:10:52.865Z,43.60
2023-02-17T01:13:22.433Z,44.67
2023-02-17T01:15:52.487Z,36.70
2023-02-17T01:18:24.417Z,39.25
2023-02-17T01:20:52.893Z,42.42
2023-02-17T01:23:20.816Z,38.75
2023-02-17T01:25:50.711Z,45.78
2023-02-17T01:28:21.362Z,42.28
2023-02-17T01:30:50.757Z,40.70
2023-02-17T01:33:18.706Z,40.55
2023-02-17T01:35:46.587Z,41.88
2023-02-17T01:38:14.489Z,44.92
2023-02-17T01:40:48.316Z,38.50
2023-02-17T01:43:18.897Z,35.92
2023-02-17T01:45:54.311Z,37.53
2023-02-17T01:48:25.932Z,42.83
2023-02-17T01:50:56.479Z,37.30
2023-02-17T01:53:32.728Z,38.15
2023-02-17T01:56:00.697Z,42.05
2023-02-17T01:58:29.834Z,38.22
2023-02-17T02:01:02.396Z,45.15
2023-02-17T02:03:34.230Z,44.50
2023-02-17T02:06:07.154Z,44.80
2023-02-17T02:08:43.823Z,41.30
2023-02-17T02:11:11.689Z,41.10
2023-02-17T02:13:39.635Z,42.75
2023-02-17T02:16:18.648Z,47.67
2023-02-17T02:18:56.747Z,43.88
2023-02-17T02:21:53.674Z,46.60
2023-02-17T02:24:45.260Z,44.78
2023-02-17T02:27:38.658Z,53.42
2023-02-17T02:30:31.544Z,44.20
2023-02-17T02:33:08.801Z,44.03
2023-02-17T02:35:48.520Z,43.90
2023-02-17T02:38:22.826Z,43.33
2023-02-17T02:40:55.132Z,43.08
2023-02-17T02:43:25.067Z,47.40
2023-02-17T02:45:53.133Z,42.67
2023-02-17T02:48:22.664Z,44.90
2023-02-17T02:51:23.323Z,45.67
2023-02-17T02:54:03.435Z,45.40
2023-02-17T02:56:41.852Z,47.20
2023-02-17T02:59:23.105Z,48.20
2023-02-17T03:02:03.497Z,43.13
2023-02-17T03:04:37.770Z,45.28
2023-02-17T03:07:12.748Z,45.42
2023-02-17T03:09:42.364Z,43.63
2023-02-17T03:12:13.800Z,52.22
2023-02-17T03:14:44.261Z,50.00
2023-02-17T03:17:12.532Z,45.13
2023-02-17T03:19:42.166Z,48.15
2023-02-17T03:22:17.780Z,46.70
2023-02-17T03:24:48.817Z,44.83
2023-02-17T03:27:16.746Z,45.80
2023-02-17T03:29:44.650Z,49.85
2023-02-17T03:32:12.908Z,48.35
2023-02-17T03:34:42.228Z,47.85
2023-02-17T03:37:10.098Z,47.33
2023-02-17T03:39:38.041Z,49.08
2023-02-17T03:42:05.956Z,49.03
2023-02-17T03:44:33.840Z,50.28
2023-02-17T03:47:01.728Z,52.35
2023-02-17T03:49:29.802Z,47.95
2023-02-17T03:51:59.507Z,52.58
2023-02-17T03:54:27.758Z,47.38
2023-02-17T03:56:55.632Z,49.28
2023-02-17T03:59:23.653Z,49.78
2023-02-17T04:01:51.637Z,49.38
2023-02-17T04:04:19.735Z,51.22
2023-02-17T04:06:47.672Z,51.97
2023-02-17T04:09:17.212Z,52.47
2023-02-17T04:11:46.086Z,51.83
2023-02-17T04:14:15.707Z,45.83
2023-02-17T04:16:43.703Z,50.50
2023-02-17T04:19:12.442Z,44.95
2023-02-17T04:21:40.784Z,45.90
2023-02-17T04:24:09.263Z,46.83
2023-02-17T04:26:39.671Z,52.42
2023-02-17T04:29:07.735Z,52.90
2023-02-17T04:31:36.230Z,46.72
2023-02-17T04:34:04.449Z,45.42
2023-02-17T04:36:33.924Z,50.17
2023-02-17T04:39:03.464Z,49.85
2023-02-17T04:41:33.344Z,46.30
2023-02-17T04:44:02.865Z,49.33
2023-02-17T04:46:31.150Z,47.25
2023-02-17T04:48:59.374Z,46.78
2023-02-17T04:51:27.517Z,45.65
2023-02-17T04:53:58.137Z,42.17
2023-02-17T04:56:26.083Z,41.75
2023-02-17T04:58:54.078Z,49.35
2023-02-17T05:01:23.382Z,47.78
2023-02-17T05:03:51.484Z,41.10
2023-02-17T05:06:19.675Z,44.85
2023-02-17T05:08:48.316Z,42.40
2023-02-17T05:11:16.365Z,47.05
2023-02-17T05:13:44.417Z,40.28
2023-02-17T05:16:12.398Z,49.80
2023-02-17T05:18:41.695Z,45.65
2023-02-17T05:21:09.558Z,40.88
2023-02-17T05:23:41.229Z,47.40
2023-02-17T05:26:09.640Z,44.55
2023-02-17T05:28:38.404Z,46.90
2023-02-17T05:31:06.585Z,45.05
2023-02-17T05:33:34.646Z,39.78
2023-02-17T05:36:05.922Z,45.35
2023-02-17T05:38:34.675Z,46.05
2023-02-17T05:41:02.574Z,44.13
2023-02-17T05:43:30.877Z,45.65
2023-02-17T05:46:03.155Z,43.30
2023-02-17T05:48:31.395Z,49.35
2023-02-17T05:50:59.344Z,45.40
2023-02-17T05:53:28.818Z,47.38
2023-02-17T05:55:56.673Z,50.28
2023-02-17T05:58:25.052Z,44.92
2023-02-17T06:00:52.889Z,48.50
2023-02-17T06:03:20.836Z,47.50
2023-02-17T06:05:48.758Z,42.30
2023-02-17T06:08:16.637Z,44.50
2023-02-17T06:10:45.851Z,40.95
2023-02-17T06:13:13.710Z,44.10
2023-02-17T06:15:42.056Z,44.53
2023-02-17T06:18:09.957Z,50.72
2023-02-17T06:20:38.064Z,40.53
2023-02-17T06:23:05.952Z,41.35
2023-02-17T06:25:33.972Z,43.70
2023-02-17T06:28:03.224Z,38.22
2023-02-17T06:30:31.433Z,42.75
2023-02-17T06:32:59.732Z,43.83
2023-02-17T06:35:27.701Z,44.90
2023-02-17T06:37:55.620Z,38.42
2023-02-17T06:40:23.765Z,40.80
2023-02-17T06:42:51.639Z,37.45
2023-02-17T06:45:21.303Z,39.10
2023-02-17T06:47:49.184Z,39.90
2023-02-17T06:50:17.180Z,39.35
2023-02-17T06:52:45.050Z,40.88
2023-02-17T06:55:12.871Z,40.40
2023-02-17T06:57:40.770Z,39.50
2023-02-17T07:00:09.697Z,40.10
2023-02-17T07:02:40.202Z,36.22
2023-02-17T07:05:09.004Z,42.15
2023-02-17T07:07:36.840Z,38.38
2023-02-17T07:10:05.048Z,35.85
2023-02-17T07:12:32.911Z,35.67
2023-02-17T07:15:00.748Z,33.22
2023-02-17T07:17:28.666Z,31.63
2023-02-17T07:19:57.937Z,32.85
2023-02-17T07:22:26.784Z,33.03
2023-02-17T07:24:54.669Z,31.67
2023-02-17T07:27:22.550Z,29.45
2023-02-17T07:29:50.494Z,33.20
2023-02-17T07:32:18.451Z,29.27
2023-02-17T07:34:46.519Z,28.00
2023-02-17T07:37:15.777Z,28.38
2023-02-17T07:39:43.831Z,28.17
2023-02-17T07:42:11.771Z,26.83
2023-02-17T07:44:40.451Z,26.50
2023-02-17T07:47:08.332Z,27.48
2023-02-17T07:49:36.234Z,31.10
2023-02-17T07:52:05.425Z,28.75
2023-02-17T07:54:35.143Z,29.17
2023-02-17T07:57:03.069Z,26.55
2023-02-17T07:59:31.055Z,27.88
2023-02-17T08:01:59.016Z,23.63
2023-02-17T08:04:26.962Z,24.45
2023-02-17T08:06:54.944Z,24.48
2023-02-17T08:09:40.117Z,26.25
2023-02-17T08:12:33.793Z,21.85
2023-02-17T08:15:01.957Z,30.92
2023-02-17T08:17:30.394Z,23.33
2023-02-17T08:20:00.493Z,21.42
2023-02-17T08:22:30.028Z,25.15
2023-02-17T08:24:57.953Z,20.08
2023-02-17T08:27:27.434Z,24.98
2023-02-17T08:29:55.902Z,21.30
2023-02-17T08:32:24.033Z,22.40
2023-02-17T08:34:51.965Z,23.92
2023-02-17T08:37:19.876Z,21.88
2023-02-17T08:39:47.718Z,24.35
2023-02-17T08:42:15.622Z,20.73
2023-02-17T08:44:45.048Z,24.98
2023-02-17T08:47:12.972Z,24.00
2023-02-17T08:49:41.894Z,21.73
2023-02-17T08:52:09.871Z,22.25
2023-02-17T08:54:38.429Z,26.90
2023-02-17T08:57:06.685Z,22.27
2023-02-17T08:59:34.750Z,19.55
2023-02-17T09:02:04.109Z,24.95
2023-02-17T09:04:31.991Z,25.10
2023-02-17T09:06:59.923Z,22.83
2023-02-17T09:09:28.330Z,22.88
2023-02-17T09:11:57.169Z,25.55
2023-02-17T09:14:25.455Z,21.05
2023-02-17T09:16:54.318Z,24.27
2023-02-17T09:19:24.654Z,22.48
2023-02-17T09:21:52.816Z,22.30
2023-02-17T09:24:20.767Z,22.35
2023-02-17T09:26:48.690Z,29.15
2023-02-17T09:29:16.676Z,22.30
2023-02-17T09:31:46.096Z,22.13
2023-02-17T09:34:15.472Z,24.02
2023-02-17T09:36:44.723Z,25.42
2023-02-17T09:39:14.169Z,25.00
2023-02-17T09:41:45.241Z,25.13
2023-02-17T09:44:21.891Z,24.58
2023-02-17T09:47:02.273Z,22.83
2023-02-17T09:49:37.996Z,25.00
2023-02-17T09:52:13.314Z,22.52
2023-02-17T09:54:58.046Z,20.35
2023-02-17T09:57:30.529Z,22.00
2023-02-17T10:00:03.875Z,22.73
2023-02-17T10:02:42.909Z,23.35
2023-02-17T10:05:15.625Z,25.15
2023-02-17T10:07:49.396Z,23.90
2023-02-17T10:10:21.949Z,27.58
2023-02-17T10:12:54.045Z,28.43
2023-02-17T10:15:25.941Z,24.70
2023-02-17T10:17:59.770Z,23.17
2023-02-17T10:20:33.805Z,23.45
2023-02-17T10:23:08.165Z,24.27
2023-02-17T10:25:56.865Z,25.33
2023-02-17T10:28:40.497Z,26.40
2023-02-17T10:33:49.112Z,26.42
2023-02-17T10:36:26.100Z,22.83
2023-02-17T10:39:04.352Z,28.35
2023-02-17T10:41:37.386Z,24.65
2023-02-17T10:44:10.454Z,25.45
2023-02-17T10:46:43.227Z,23.60
2023-02-17T10:49:19.187Z,24.60
2023-02-17T10:51:47.444Z,23.40
2023-02-17T10:54:24.283Z,24.80
2023-02-17T10:56:55.480Z,27.77
2023-02-17T10:59:28.375Z,24.63
2023-02-17T11:01:59.531Z,24.10
2023-02-17T11:04:27.429Z,24.77
2023-02-17T11:06:56.202Z,24.10
2023-02-17T11:09:28.796Z,24.98
2023-02-17T11:12:01.376Z,24.50
2023-02-17T11:14:31.356Z,21.97
2023-02-17T11:17:00.901Z,23.25
2023-02-17T11:19:33.930Z,25.23
2023-02-17T11:22:04.243Z,20.23
2023-02-17T11:24:35.497Z,23.58
2023-02-17T11:27:05.753Z,24.42
2023-02-17T11:29:34.514Z,22.75
2023-02-17T11:32:07.224Z,21.83
2023-02-17T11:34:37.112Z,21.35
2023-02-17T11:37:20.242Z,23.60
2023-02-17T11:39:53.392Z,24.55
2023-02-17T11:42:23.643Z,20.70
2023-02-17T11:44:52.431Z,20.00
2023-02-17T11:47:30.717Z,21.88
2023-02-17T11:50:39.058Z,20.90
2023-02-17T11:53:21.014Z,22.38
2023-02-17T11:56:01.753Z,18.30
2023-02-17T11:58:44.959Z,19.90
2023-02-17T12:01:31.071Z,15.95
2023-02-17T12:04:30.684Z,18.55
2023-02-17T12:07:31.146Z,16.77
2023-02-17T12:10:06.168Z,18.38
2023-02-17T12:12:52.137Z,16.33
2023-02-17T12:15:36.682Z,17.35
2023-02-17T12:18:16.921Z,15.10
2023-02-17T12:20:52.116Z,17.55
2023-02-17T12:23:37.072Z,16.67
2023-02-17T12:26:13.242Z,13.63
2023-02-17T12:28:52.955Z,17.92
2023-02-17T12:31:36.035Z,17.02
2023-02-17T12:34:15.330Z,16.67
2023-02-17T12:36:44.569Z,17.55
2023-02-17T12:39:17.694Z,13.70
2023-02-17T12:41:52.269Z,14.63
2023-02-17T12:44:24.613Z,13.57
2023-02-17T12:46:54.642Z,15.02
2023-02-17T12:49:28.555Z,14.38
2023-02-17T12:52:01.520Z,15.73
2023-02-17T12:54:35.355Z,12.45
2023-02-17T12:57:14.666Z,11.10
2023-02-17T12:59:45.600Z,13.18
2023-02-17T13:02:15.541Z,11.40
2023-02-17T13:04:46.185Z,11.60
2023-02-17T13:07:28.128Z,18.67
2023-02-17T13:09:57.867Z,11.15
2023-02-17T13:12:41.585Z,39.70
2023-02-17T13:18:01.283Z,13.27
2023-02-17T13:20:45.783Z,10.77
2023-02-17T13:23:16.068Z,9.40
2023-02-17T13:25:44.016Z,12.32
2023-02-17T13:28:32.551Z,8.73
2023-02-17T13:31:11.243Z,8.85
2023-02-17T13:33:47.414Z,8.95
2023-02-17T13:36:18.165Z,9.02
2023-02-17T13:38:56.906Z,8.30
2023-02-17T13:41:24.836Z,10.68
2023-02-17T13:43:52.733Z,8.05
2023-02-17T13:46:25.170Z,7.97
2023-02-17T13:49:02.929Z,10.67
2023-02-17T13:51:33.317Z,10.82
2023-02-17T13:54:10.487Z,6.75
2023-02-17T13:56:38.419Z,9.20
2023-02-17T13:59:17.918Z,9.10
2023-02-17T14:01:47.105Z,7.90
2023-02-17T14:04:22.264Z,7.50
2023-02-17T14:06:51.155Z,5.90
2023-02-17T14:09:24.006Z,7.22
2023-02-17T14:11:52.844Z,7.25
2023-02-17T14:14:23.041Z,8.85
2023-02-17T14:16:59.431Z,6.05
2023-02-17T14:19:29.299Z,9.45
2023-02-17T14:22:02.713Z,8.90
2023-02-17T14:27:02.186Z,9.77
2023-02-17T14:29:48.852Z,6.25
2023-02-17T14:32:32.524Z,8.77
2023-02-17T14:37:48.908Z,8.95
2023-02-17T14:40:19.269Z,8.55
2023-02-17T14:42:47.641Z,7.30
2023-02-17T14:45:16.326Z,7.22
2023-02-17T14:47:44.269Z,8.65
2023-02-17T14:50:14.926Z,7.22
2023-02-17T14:52:45.305Z,8.40
2023-02-17T14:55:19.773Z,10.98
2023-02-17T14:57:47.707Z,10.27
2023-02-17T15:00:16.599Z,8.57
2023-02-17T15:02:44.589Z,10.63
2023-02-17T15:05:13.868Z,12.30
2023-02-17T15:07:42.336Z,13.60
2023-02-17T15:10:20.317Z,11.90
2023-02-17T15:12:48.283Z,10.32
2023-02-17T15:15:17.800Z,13.95
2023-02-17T15:17:46.358Z,15.32
2023-02-17T15:20:17.292Z,10.85
2023-02-17T15:22:45.425Z,15.18
2023-02-17T15:25:15.794Z,13.40
2023-02-17T15:27:44.967Z,14.02
2023-02-17T15:30:15.325Z,13.02
2023-02-17T15:32:43.962Z,14.90
2023-02-17T15:35:17.995Z,12.93
2023-02-17T15:37:46.174Z,12.95
2023-02-17T15:40:15.439Z,15.43
2023-02-17T15:42:43.999Z,15.65
2023-02-17T15:45:15.112Z,16.95
2023-02-17T15:47:43.275Z,15.45
2023-02-17T15:50:20.653Z,14.00
2023-02-17T15:52:50.077Z,14.93
2023-02-17T15:55:19.363Z,14.60
2023-02-17T15:57:49.424Z,14.13
2023-02-17T16:00:21.045Z,14.85
2023-02-17T16:02:49.078Z,15.85
2023-02-17T16:05:20.742Z,15.35
2023-02-17T16:07:48.888Z,13.88
2023-02-17T16:10:19.896Z,14.07
2023-02-17T16:12:49.228Z,15.48
2023-02-17T16:15:19.767Z,12.57
2023-02-17T16:17:48.885Z,15.98
2023-02-17T16:20:20.699Z,15.02
2023-02-17T16:22:49.068Z,12.88
2023-02-17T16:25:18.455Z,13.82
2023-02-17T16:27:48.716Z,16.55
2023-02-17T16:30:22.335Z,11.98
2023-02-17T16:32:51.082Z,12.43
2023-02-17T16:35:22.458Z,13.15
2023-02-17T16:37:54.487Z,13.20
2023-02-17T16:40:24.667Z,10.65
2023-02-17T16:42:52.878Z,9.27
2023-02-17T16:45:23.546Z,9.85
2023-02-17T16:47:53.380Z,10.35
2023-02-17T16:50:27.214Z,9.57
2023-02-17T16:52:56.573Z,10.85
2023-02-17T16:55:27.754Z,9.25
2023-02-17T16:57:55.665Z,7.53
2023-02-17T17:00:27.700Z,8.40
2023-02-17T17:02:56.797Z,7.75
2023-02-17T17:05:27.925Z,9.05
2023-02-17T17:07:56.480Z,7.95
2023-02-17T17:10:27.310Z,11.18
2023-02-17T17:12:55.502Z,6.47
2023-02-17T17:15:23.892Z,5.70
2023-02-17T17:17:54.321Z,6.70
2023-02-17T17:20:27.904Z,6.68
2023-02-17T17:22:57.455Z,6.70
2023-02-17T17:25:25.434Z,7.53
2023-02-17T17:27:54.145Z,7.35
2023-02-17T17:30:24.686Z,7.47
2023-02-17T17:32:53.084Z,6.78
2023-02-17T17:35:21.420Z,7.78
2023-02-17T17:37:50.019Z,5.57
2023-02-17T17:40:22.562Z,6.72
2023-02-17T17:42:50.702Z,10.07
2023-02-17T17:45:18.981Z,7.28
2023-02-17T17:47:47.582Z,4.93
2023-02-17T17:50:18.668Z,7.07
2023-02-17T17:52:47.308Z,7.82
2023-02-17T17:55:15.734Z,9.05
2023-02-17T17:57:45.100Z,5.93
2023-02-17T18:00:15.876Z,5.85
2023-02-17T18:02:43.940Z,4.47
2023-02-17T18:05:12.307Z,6.13
2023-02-17T18:07:41.762Z,6.88
2023-02-17T18:10:12.329Z,6.97
2023-02-17T18:12:43.036Z,9.23
2023-02-17T18:15:12.859Z,7.97
2023-02-17T18:17:42.976Z,8.20
2023-02-17T18:20:12.655Z,7.55
2023-02-17T18:22:40.980Z,6.38
2023-02-17T18:25:09.963Z,8.75
2023-02-17T18:27:39.594Z,5.90
2023-02-17T18:30:10.078Z,6.55
2023-02-17T18:32:39.371Z,6.32
2023-02-17T18:35:07.741Z,5.82
2023-02-17T18:37:35.770Z,7.03
2023-02-17T18:40:05.038Z,6.28
2023-02-17T18:42:34.029Z,3.78
2023-02-17T18:45:02.187Z,6.00
2023-02-17T18:47:31.186Z,4.13
2023-02-17T18:50:00.418Z,9.57
2023-02-17T18:52:28.434Z,6.43
2023-02-17T18:54:56.493Z,6.70
2023-02-17T18:57:24.396Z,4.82
2023-02-17T18:59:52.349Z,5.32
2023-02-17T19:02:21.981Z,3.78
2023-02-17T19:04:52.985Z,7.68
2023-02-17T19:07:22.426Z,5.95
2023-02-17T19:09:51.648Z,11.35
2023-02-17T19:12:19.785Z,5.18
2023-02-17T19:14:48.447Z,8.05
2023-02-17T19:17:21.192Z,3.35
2023-02-17T19:19:49.660Z,3.20
2023-02-17T19:22:20.269Z,8.30
2023-02-17T19:24:52.338Z,3.13
2023-02-17T19:27:20.474Z,5.38
2023-02-17T19:29:48.416Z,6.72
2023-02-17T19:32:16.441Z,4.00
2023-02-17T19:34:44.384Z,6.07
2023-02-17T19:37:12.323Z,9.50
2023-02-17T19:39:40.300Z,6.68
2023-02-17T19:42:09.573Z,8.55
2023-02-17T19:44:37.485Z,5.60
2023-02-17T19:47:05.424Z,5.45
2023-02-17T19:49:34.277Z,8.50
2023-02-17T19:52:02.381Z,9.35
2023-02-17T19:54:30.320Z,6.28
2023-02-17T19:56:58.268Z,7.45
2023-02-17T19:59:27.505Z,10.60
2023-02-17T20:01:55.449Z,5.28
2023-02-17T20:04:23.360Z,3.20
2023-02-17T20:06:52.625Z,6.75
2023-02-17T20:09:22.730Z,8.60
2023-02-17T20:11:53.018Z,11.18
2023-02-17T20:14:21.772Z,6.70
2023-02-17T20:16:53.275Z,8.38
2023-02-17T20:19:21.517Z,9.77
2023-02-17T20:21:49.375Z,4.75
2023-02-17T20:24:17.304Z,8.02
2023-02-17T20:26:48.893Z,7.88
2023-02-17T20:29:16.805Z,9.73
2023-02-17T20:31:44.817Z,8.63
2023-02-17T20:34:27.186Z,5.28
2023-02-17T20:36:55.750Z,8.13
2023-02-17T20:39:23.762Z,8.80
2023-02-17T20:41:51.660Z,5.82
2023-02-17T20:44:19.714Z,8.00
2023-02-17T20:46:48.177Z,11.88
2023-02-17T20:49:16.250Z,8.88
2023-02-17T20:51:45.544Z,9.55
2023-02-17T20:54:13.545Z,12.68
2023-02-17T20:56:44.415Z,14.80
2023-02-17T20:59:13.945Z,16.77
2023-02-17T21:01:42.835Z,11.65
2023-02-17T21:04:14.006Z,13.52
2023-02-17T21:06:43.196Z,12.30
2023-02-17T21:09:15.937Z,9.70
2023-02-17T21:11:44.329Z,14.93
2023-02-17T21:14:12.367Z,11.25
2023-02-17T21:16:40.439Z,16.13
2023-02-17T21:19:08.620Z,11.38
2023-02-17T21:21:36.717Z,16.08
2023-02-17T21:24:04.855Z,10.55
2023-02-17T21:26:35.014Z,11.73
2023-02-17T21:29:03.460Z,8.90
2023-02-17T21:31:31.964Z,6.80
2023-02-17T21:34:00.920Z,9.35
2023-02-17T21:36:29.590Z,10.48
2023-02-17T21:38:57.650Z,9.35
2023-02-17T21:41:27.608Z,11.90
2023-02-17T21:44:16.197Z,12.38
2023-02-17T21:46:45.140Z,11.13
2023-02-17T21:49:13.565Z,12.10
2023-02-17T21:51:42.072Z,12.05
2023-02-17T21:54:11.090Z,9.77
2023-02-17T21:56:39.378Z,9.25
2023-02-17T21:59:09.256Z,9.35
2023-02-17T22:01:37.760Z,9.40
2023-02-17T22:04:06.157Z,15.10
2023-02-17T22:06:36.263Z,5.88
2023-02-17T22:09:06.906Z,14.30
2023-02-17T22:11:36.972Z,14.80
2023-02-17T22:14:07.223Z,10.32
2023-02-17T22:16:40.011Z,14.23
2023-02-17T22:19:10.591Z,11.07
2023-02-17T22:21:40.150Z,9.32
2023-02-17T22:24:08.481Z,14.90
2023-02-17T22:26:36.375Z,9.93
2023-02-17T22:29:06.877Z,8.40
2023-02-17T22:31:36.562Z,12.15
2023-02-17T22:34:07.020Z,13.30
2023-02-17T22:36:36.845Z,6.75
2023-02-17T22:39:06.371Z,22.25
2023-02-17T22:41:35.148Z,11.32
2023-02-17T22:44:04.054Z,15.45
2023-02-17T22:46:32.454Z,11.20
2023-02-17T22:49:02.626Z,10.85
2023-02-17T22:51:32.827Z,10.55
2023-02-17T22:54:02.300Z,12.23
2023-02-17T22:56:31.012Z,12.70
2023-02-17T22:59:01.025Z,10.15
2023-02-17T23:01:30.851Z,17.75
2023-02-17T23:03:58.860Z,17.00
2023-02-17T23:06:29.920Z,11.88
2023-02-17T23:08:59.445Z,8.02
2023-02-17T23:11:47.604Z,11.18
2023-02-17T23:14:17.094Z,20.38
2023-02-17T23:16:45.389Z,10.15
2023-02-17T23:19:15.282Z,15.20
2023-02-17T23:21:45.730Z,15.70
2023-02-17T23:24:15.056Z,13.43
2023-02-17T23:26:43.024Z,6.50
2023-02-17T23:29:11.254Z,20.83
2023-02-17T23:31:39.590Z,12.32
2023-02-17T23:34:07.870Z,18.45
2023-02-17T23:36:38.978Z,13.00
2023-02-17T23:39:08.505Z,14.15
2023-02-17T23:41:36.997Z,12.57
2023-02-17T23:44:05.624Z,14.50
2023-02-17T23:46:33.590Z,15.82
2023-02-17T23:49:01.534Z,16.83
2023-02-17T23:51:29.437Z,13.10
2023-02-17T23:53:57.248Z,24.58
2023-02-17T23:56:28.429Z,16.20
2023-02-17T23:58:56.383Z,23.00
